sensor_id;sensor_type;location;lat;lon;timestamp;pressure;altitude;pressure_sealevel;temperature;humidity
38191;BME280;25191;47.510;19.124;2023-07-24T00:14:10;100053.00;;;25.23;52.95
38191;BME280;25191;47.510;19.124;2023-07-24T00:34:11;100043.31;;;25.14;53.13
38191;BME280;25191;47.510;19.124;2023-07-24T00:54:12;100014.41;;;24.85;53.81
38191;BME280;25191;47.510;19.124;2023-07-24T01:14:21;100005.25;;;24.79;54.42
38191;BME280;25191;47.510;19.124;2023-07-24T01:34:25;100010.34;;;24.72;54.71
38191;BME280;25191;47.510;19.124;2023-07-24T01:54:25;99989.91;;;24.65;54.93
38191;BME280;25191;47.510;19.124;2023-07-24T02:14:26;99993.69;;;24.62;55.15
38191;BME280;25191;47.510;19.124;2023-07-24T02:34:27;99992.53;;;24.46;55.85
38191;BME280;25191;47.510;19.124;2023-07-24T02:54:28;99991.75;;;24.36;56.39
38191;BME280;25191;47.510;19.124;2023-07-24T03:14:28;99995.78;;;24.40;56.50
38191;BME280;25191;47.510;19.124;2023-07-24T03:34:29;99970.75;;;24.35;56.11
38191;BME280;25191;47.510;19.124;2023-07-24T03:54:29;99980.91;;;24.11;57.35
38191;BME280;25191;47.510;19.124;2023-07-24T04:14:30;99977.91;;;24.42;55.36
38191;BME280;25191;47.510;19.124;2023-07-24T04:34:30;99967.81;;;23.82;57.23
38191;BME280;25191;47.510;19.124;2023-07-24T04:54:33;99970.47;;;23.82;58.13
38191;BME280;25191;47.510;19.124;2023-07-24T05:14:34;99989.66;;;23.94;59.05
38191;BME280;25191;47.510;19.124;2023-07-24T05:34:36;99983.72;;;24.10;59.44
38191;BME280;25191;47.510;19.124;2023-07-24T05:54:36;99976.41;;;24.22;59.62
38191;BME280;25191;47.510;19.124;2023-07-24T06:14:37;99966.88;;;24.29;60.28
38191;BME280;25191;47.510;19.124;2023-07-24T06:34:37;99960.97;;;24.53;59.88
38191;BME280;25191;47.510;19.124;2023-07-24T06:54:37;99956.91;;;24.59;60.52
38191;BME280;25191;47.510;19.124;2023-07-24T07:14:38;99942.91;;;24.85;60.10
38191;BME280;25191;47.510;19.124;2023-07-24T07:34:38;99916.41;;;25.03;59.29
38191;BME280;25191;47.510;19.124;2023-07-24T07:54:39;99898.31;;;25.24;58.86
38191;BME280;25191;47.510;19.124;2023-07-24T08:14:39;99900.28;;;25.49;57.79
38191;BME280;25191;47.510;19.124;2023-07-24T08:34:40;99895.03;;;25.65;57.44
38191;BME280;25191;47.510;19.124;2023-07-24T08:54:40;99875.53;;;25.83;56.08
38191;BME280;25191;47.510;19.124;2023-07-24T09:14:41;99845.72;;;26.05;54.14
38191;BME280;25191;47.510;19.124;2023-07-24T09:34:42;99842.47;;;26.20;52.78
38191;BME280;25191;47.510;19.124;2023-07-24T10:14:59;99772.25;;;26.56;49.24
38191;BME280;25191;47.510;19.124;2023-07-24T10:35:08;99749.66;;;26.76;48.02
38191;BME280;25191;47.510;19.124;2023-07-24T10:55:09;99732.69;;;26.86;47.76
38191;BME280;25191;47.510;19.124;2023-07-24T11:15:10;99692.78;;;26.94;46.86
38191;BME280;25191;47.510;19.124;2023-07-24T11:35:11;99653.19;;;27.07;46.11
38191;BME280;25191;47.510;19.124;2023-07-24T11:55:13;99605.25;;;27.24;44.72
38191;BME280;25191;47.510;19.124;2023-07-24T12:15:15;99577.41;;;27.43;44.99
38191;BME280;25191;47.510;19.124;2023-07-24T12:35:16;99549.63;;;27.60;44.19
38191;BME280;25191;47.510;19.124;2023-07-24T12:55:20;99518.63;;;27.83;43.03
38191;BME280;25191;47.510;19.124;2023-07-24T13:15:20;99503.56;;;28.35;41.83
38191;BME280;25191;47.510;19.124;2023-07-24T13:35:20;99446.31;;;28.46;42.26
38191;BME280;25191;47.510;19.124;2023-07-24T13:55:21;99424.50;;;28.79;41.84
38191;BME280;25191;47.510;19.124;2023-07-24T14:15:22;99395.00;;;28.80;41.28
38191;BME280;25191;47.510;19.124;2023-07-24T14:35:23;99339.69;;;28.82;40.37
38191;BME280;25191;47.510;19.124;2023-07-24T14:55:24;99301.88;;;29.00;38.12
38191;BME280;25191;47.510;19.124;2023-07-24T15:15:27;99289.56;;;28.99;38.13
38191;BME280;25191;47.510;19.124;2023-07-24T15:35:28;99268.69;;;29.10;39.71
38191;BME280;25191;47.510;19.124;2023-07-24T15:55:28;99271.41;;;29.16;36.91
38191;BME280;25191;47.510;19.124;2023-07-24T16:15:29;99251.94;;;29.22;36.23
38191;BME280;25191;47.510;19.124;2023-07-24T16:35:29;99208.84;;;29.12;37.60
38191;BME280;25191;47.510;19.124;2023-07-24T16:55:30;99214.47;;;29.44;37.05
38191;BME280;25191;47.510;19.124;2023-07-24T17:15:30;99222.22;;;29.19;38.26
38191;BME280;25191;47.510;19.124;2023-07-24T17:35:31;99209.91;;;29.18;39.26
38191;BME280;25191;47.510;19.124;2023-07-24T17:55:32;99196.09;;;29.07;40.00
38191;BME280;25191;47.510;19.124;2023-07-24T18:15:34;99181.97;;;29.00;40.70
38191;BME280;25191;47.510;19.124;2023-07-24T18:35:35;99146.06;;;28.96;41.48
38191;BME280;25191;47.510;19.124;2023-07-24T18:55:36;99171.28;;;28.94;42.14
38191;BME280;25191;47.510;19.124;2023-07-24T19:15:39;99190.50;;;28.82;42.74
38191;BME280;25191;47.510;19.124;2023-07-24T19:35:40;99200.25;;;28.68;43.93
38191;BME280;25191;47.510;19.124;2023-07-24T19:55:41;99193.03;;;28.62;44.52
38191;BME280;25191;47.510;19.124;2023-07-24T20:15:44;99159.63;;;28.53;44.80
38191;BME280;25191;47.510;19.124;2023-07-24T20:35:47;99131.88;;;28.40;45.31
38191;BME280;25191;47.510;19.124;2023-07-24T20:55:49;99126.69;;;28.25;45.59
38191;BME280;25191;47.510;19.124;2023-07-24T21:15:50;99109.84;;;28.11;45.64
38191;BME280;25191;47.510;19.124;2023-07-24T21:35:59;99164.50;;;27.92;45.03
38191;BME280;25191;47.510;19.124;2023-07-24T21:56:00;99206.59;;;27.82;44.00
38191;BME280;25191;47.510;19.124;2023-07-24T22:16:01;99226.09;;;27.68;44.70
38191;BME280;25191;47.510;19.124;2023-07-24T22:36:01;99222.91;;;27.57;44.30
38191;BME280;25191;47.510;19.124;2023-07-24T22:56:06;99139.63;;;27.50;42.93
38191;BME280;25191;47.510;19.124;2023-07-24T23:16:15;99228.78;;;27.31;41.21
38191;BME280;25191;47.510;19.124;2023-07-24T23:36:16;99301.38;;;27.16;42.08
38191;BME280;25191;47.510;19.124;2023-07-24T23:56:17;99377.44;;;27.03;41.98
